createdAt,value
2017-07-10T00:02:16.781Z,78.20
2017-07-10T00:04:45.057Z,79.00
2017-07-10T00:07:13.340Z,79.60
2017-07-10T00:09:41.608Z,80.60
2017-07-10T00:12:10.686Z,80.00
2017-07-10T00:14:38.963Z,80.30
2017-07-10T00:17:07.241Z,81.00
2017-07-10T00:19:35.547Z,80.90
2017-07-10T00:22:04.585Z,82.40
2017-07-10T00:24:32.877Z,81.60
2017-07-10T00:27:01.148Z,81.70
2017-07-10T00:29:29.447Z,81.30
2017-07-10T00:31:57.736Z,81.70
2017-07-10T00:34:26.032Z,80.60
2017-07-10T00:36:55.077Z,80.60
2017-07-10T00:39:23.368Z,80.60
2017-07-10T00:41:51.643Z,80.90
2017-07-10T00:44:19.947Z,81.60
2017-07-10T00:46:48.233Z,81.20
2017-07-10T00:49:17.285Z,80.80
2017-07-10T00:51:45.584Z,80.80
2017-07-10T00:54:13.875Z,81.80
2017-07-10T00:56:42.168Z,81.80
2017-07-10T00:59:11.209Z,82.00
2017-07-10T01:01:39.503Z,81.90
2017-07-10T01:04:07.776Z,81.40
2017-07-10T01:06:36.063Z,81.40
2017-07-10T01:09:04.336Z,81.50
2017-07-10T01:11:32.644Z,82.00
2017-07-10T01:14:00.911Z,81.80
2017-07-10T01:16:29.947Z,81.50
2017-07-10T01:18:58.243Z,81.50
2017-07-10T01:21:26.519Z,81.80
2017-07-10T01:23:54.806Z,82.10
2017-07-10T01:26:23.083Z,82.00
2017-07-10T01:28:51.363Z,81.30
2017-07-10T01:31:19.637Z,81.30
2017-07-10T01:33:47.916Z,81.30
2017-07-10T01:36:16.192Z,80.40
2017-07-10T01:38:44.471Z,79.80
2017-07-10T01:41:12.739Z,80.50
2017-07-10T01:43:41.043Z,80.30
2017-07-10T01:46:10.088Z,81.10
2017-07-10T01:48:38.364Z,81.10
2017-07-10T01:51:06.655Z,80.00
2017-07-10T01:53:34.921Z,79.70
2017-07-10T01:56:03.211Z,79.30
2017-07-10T01:58:31.482Z,80.10
2017-07-10T02:00:59.768Z,80.00
2017-07-10T02:03:28.038Z,80.80
2017-07-10T02:05:56.335Z,79.80
2017-07-10T02:08:24.616Z,79.40
2017-07-10T02:10:52.928Z,79.10
2017-07-10T02:13:21.963Z,79.40
2017-07-10T02:15:50.233Z,79.30
2017-07-10T02:18:18.516Z,80.10
2017-07-10T02:20:46.792Z,79.80
2017-07-10T02:23:15.082Z,79.40
2017-07-10T02:25:43.359Z,79.40
2017-07-10T02:28:11.643Z,78.50
2017-07-10T02:30:39.922Z,79.30
2017-07-10T02:33:08.211Z,77.20
2017-07-10T02:35:36.483Z,76.90
2017-07-10T02:38:04.774Z,77.60
2017-07-10T02:40:33.813Z,78.00
2017-07-10T02:43:02.078Z,77.30
2017-07-10T02:45:30.369Z,78.10
2017-07-10T02:47:58.630Z,78.00
2017-07-10T02:50:26.925Z,78.20
2017-07-10T02:52:55.198Z,78.90
2017-07-10T02:55:23.489Z,78.20
2017-07-10T02:57:51.757Z,78.20
2017-07-10T03:00:20.044Z,78.30
2017-07-10T03:02:48.319Z,78.10
2017-07-10T03:05:16.624Z,78.90
2017-07-10T03:07:44.899Z,78.80
2017-07-10T03:10:13.173Z,79.20
2017-07-10T03:12:41.460Z,79.30
2017-07-10T03:15:09.733Z,80.20
2017-07-10T03:17:38.020Z,80.00
2017-07-10T03:20:06.293Z,80.00
2017-07-10T03:22:34.589Z,80.30
2017-07-10T03:25:02.860Z,80.00
2017-07-10T03:27:31.927Z,79.50
2017-07-10T03:30:00.204Z,79.50
2017-07-10T03:32:28.525Z,77.90
2017-07-10T03:35:09.085Z,77.10
2017-07-10T03:37:38.145Z,77.00
2017-07-10T03:40:06.438Z,77.00
2017-07-10T03:42:34.700Z,77.30
2017-07-10T03:45:02.992Z,78.80
2017-07-10T03:47:31.273Z,78.00
2017-07-10T03:49:59.565Z,77.40
2017-07-10T03:52:27.837Z,78.10
2017-07-10T03:54:56.128Z,77.90
2017-07-10T03:57:24.404Z,76.80
2017-07-10T03:59:53.465Z,78.60
2017-07-10T04:02:21.740Z,78.60
2017-07-10T04:04:50.099Z,78.40
2017-07-10T04:07:18.395Z,78.20
2017-07-10T04:09:46.659Z,77.90
2017-07-10T04:12:14.944Z,77.90
2017-07-10T04:14:43.216Z,77.80
2017-07-10T04:17:11.511Z,77.20
2017-07-10T04:19:39.783Z,78.90
2017-07-10T04:22:08.059Z,77.70
2017-07-10T04:24:36.344Z,79.20
2017-07-10T04:27:04.640Z,77.90
2017-07-10T04:29:33.671Z,78.40
2017-07-10T04:32:01.972Z,79.00
2017-07-10T04:34:30.239Z,78.80
2017-07-10T04:36:58.519Z,79.30
2017-07-10T04:39:26.799Z,79.60
2017-07-10T04:41:55.088Z,79.40
2017-07-10T04:44:23.375Z,78.50
2017-07-10T04:46:51.648Z,78.20
2017-07-10T04:49:19.940Z,78.00
2017-07-10T04:51:48.215Z,78.50
2017-07-10T04:54:16.507Z,79.50
2017-07-10T04:56:44.772Z,79.30
2017-07-10T04:59:13.060Z,79.10
2017-07-10T05:01:42.152Z,79.30
2017-07-10T05:04:11.207Z,78.10
2017-07-10T05:06:39.479Z,77.90
2017-07-10T05:09:07.753Z,78.50
2017-07-10T05:11:36.049Z,77.20
2017-07-10T05:14:04.316Z,76.30
2017-07-10T05:16:32.605Z,75.80
2017-07-10T05:19:00.882Z,76.50
2017-07-10T05:21:29.164Z,76.70
2017-07-10T05:23:57.438Z,75.50
2017-07-10T05:26:25.729Z,75.70
2017-07-10T05:28:54.053Z,75.00
2017-07-10T05:31:23.095Z,74.80
2017-07-10T05:33:51.399Z,74.60
2017-07-10T05:36:20.433Z,76.50
2017-07-10T05:38:48.717Z,75.80
2017-07-10T05:41:16.993Z,75.60
2017-07-10T05:43:45.291Z,75.40
2017-07-10T05:46:13.564Z,75.60
2017-07-10T05:48:41.848Z,75.10
2017-07-10T05:51:10.115Z,74.70
2017-07-10T05:53:38.398Z,74.60
2017-07-10T05:56:06.672Z,75.30
2017-07-10T05:58:34.983Z,75.00
2017-07-10T06:01:03.260Z,74.80
2017-07-10T06:03:31.536Z,73.80
2017-07-10T06:06:00.592Z,73.60
2017-07-10T06:08:28.868Z,73.60
2017-07-10T06:10:57.160Z,72.90
2017-07-10T06:13:25.441Z,73.10
2017-07-10T06:15:53.730Z,72.50
2017-07-10T06:18:22.011Z,72.70
2017-07-10T06:20:50.308Z,73.00
2017-07-10T06:23:18.583Z,72.70
2017-07-10T06:25:46.859Z,73.10
2017-07-10T06:28:15.164Z,72.20
2017-07-10T06:30:43.439Z,72.00
2017-07-10T06:33:11.715Z,72.40
2017-07-10T06:35:40.003Z,72.50
2017-07-10T06:38:08.293Z,72.20
2017-07-10T06:40:36.572Z,72.70
2017-07-10T06:43:04.890Z,72.90
2017-07-10T06:45:33.942Z,73.00
2017-07-10T06:48:02.232Z,72.80
2017-07-10T06:50:30.558Z,72.00
2017-07-10T06:52:58.866Z,71.70
2017-07-10T06:55:27.152Z,71.20
2017-07-10T06:57:55.444Z,70.20
2017-07-10T07:00:23.746Z,69.50
2017-07-10T07:02:52.048Z,70.00
2017-07-10T07:05:20.383Z,68.70
2017-07-10T07:07:48.677Z,69.00
2017-07-10T07:10:16.948Z,68.60
2017-07-10T07:12:45.244Z,68.00
2017-07-10T07:15:14.303Z,68.10
2017-07-10T07:17:42.638Z,68.10
2017-07-10T07:20:10.926Z,68.40
2017-07-10T07:22:39.220Z,69.10
2017-07-10T07:25:07.516Z,67.50
2017-07-10T07:27:35.826Z,68.40
2017-07-10T07:30:04.916Z,67.00
2017-07-10T07:32:33.172Z,66.90
2017-07-10T07:35:01.487Z,67.00
2017-07-10T07:37:30.537Z,67.80
2017-07-10T07:39:58.841Z,67.80
2017-07-10T07:42:27.131Z,66.40
2017-07-10T07:44:56.195Z,66.60
2017-07-10T07:47:24.484Z,66.50
2017-07-10T07:49:52.792Z,64.00
2017-07-10T07:52:21.073Z,64.50
2017-07-10T07:54:49.406Z,63.30
2017-07-10T07:57:17.683Z,64.10
2017-07-10T07:59:45.999Z,64.20
2017-07-10T08:02:14.285Z,62.90
2017-07-10T08:04:42.568Z,63.10
2017-07-10T08:07:10.890Z,63.70
2017-07-10T08:09:39.184Z,64.60
2017-07-10T08:12:07.553Z,64.20
2017-07-10T08:14:35.822Z,63.90
2017-07-10T08:17:04.116Z,63.60
2017-07-10T08:19:32.387Z,62.30
2017-07-10T08:22:00.700Z,62.30
2017-07-10T08:24:28.984Z,62.80
2017-07-10T08:26:57.324Z,61.90
2017-07-10T08:29:25.609Z,63.20
2017-07-10T08:31:54.685Z,62.20
2017-07-10T08:34:22.997Z,62.20
2017-07-10T08:36:52.048Z,62.60
2017-07-10T08:39:20.364Z,62.60
2017-07-10T08:41:49.421Z,62.70
2017-07-10T08:44:17.720Z,62.70
2017-07-10T08:46:46.028Z,62.30
2017-07-10T08:49:14.327Z,60.30
2017-07-10T08:51:42.700Z,60.60
2017-07-10T08:54:11.044Z,60.40
2017-07-10T08:56:40.112Z,60.80
2017-07-10T08:59:08.390Z,60.00
2017-07-10T09:01:36.744Z,59.90
2017-07-10T09:04:05.062Z,60.00
2017-07-10T09:06:33.374Z,60.40
2017-07-10T09:09:01.664Z,59.90
2017-07-10T09:11:29.989Z,59.20
2017-07-10T09:13:58.277Z,59.00
2017-07-10T09:16:26.584Z,59.10
2017-07-10T09:18:54.891Z,58.70
2017-07-10T09:21:23.289Z,58.40
2017-07-10T09:23:51.582Z,58.40
2017-07-10T09:26:19.911Z,58.90
2017-07-10T09:28:48.187Z,57.20
2017-07-10T09:31:16.473Z,57.50
2017-07-10T09:33:44.794Z,58.10
2017-07-10T09:36:13.083Z,57.10
2017-07-10T09:38:42.164Z,56.30
2017-07-10T09:41:10.456Z,56.20
2017-07-10T09:43:39.526Z,56.80
2017-07-10T09:46:07.801Z,56.70
2017-07-10T09:48:36.112Z,56.40
2017-07-10T09:51:05.163Z,56.60
2017-07-10T09:53:35.140Z,56.70
2017-07-10T09:56:03.423Z,56.00
2017-07-10T09:58:31.719Z,56.40
2017-07-10T10:01:00.033Z,55.50
2017-07-10T10:03:28.351Z,55.00
2017-07-10T10:05:56.624Z,56.80
2017-07-10T10:08:24.899Z,58.60
2017-07-10T10:10:53.192Z,59.30
2017-07-10T10:13:21.476Z,61.70
2017-07-10T10:15:49.776Z,61.80
2017-07-10T10:18:18.061Z,62.70
2017-07-10T10:20:46.348Z,63.80
2017-07-10T10:23:14.615Z,64.40
2017-07-10T10:25:42.923Z,64.30
2017-07-10T10:28:11.204Z,65.50
2017-07-10T10:30:39.501Z,65.90
2017-07-10T10:33:07.760Z,65.80
2017-07-10T10:35:36.055Z,66.30
2017-07-10T10:38:04.340Z,67.50
2017-07-10T10:40:32.643Z,67.40
2017-07-10T10:43:00.933Z,66.90
2017-07-10T10:45:29.209Z,66.60
2017-07-10T10:47:57.498Z,67.40
2017-07-10T10:50:25.787Z,67.50
2017-07-10T10:52:54.073Z,69.40
2017-07-10T10:55:23.134Z,70.00
2017-07-10T10:57:51.425Z,69.90
2017-07-10T11:00:19.701Z,70.00
2017-07-10T11:02:48.012Z,71.00
2017-07-10T11:05:17.065Z,72.20
2017-07-10T11:07:45.345Z,72.20
2017-07-10T11:10:13.624Z,70.00
2017-07-10T11:12:41.895Z,70.30
2017-07-10T11:15:10.196Z,71.10
2017-07-10T11:17:38.488Z,72.60
2017-07-10T11:20:07.539Z,68.90
2017-07-10T11:22:35.819Z,68.70
2017-07-10T11:25:04.104Z,67.40
2017-07-10T11:27:32.379Z,66.40
2017-07-10T11:30:00.672Z,62.70
2017-07-10T11:32:28.954Z,62.10
2017-07-10T11:34:57.232Z,59.40
2017-07-10T11:37:25.527Z,58.90
2017-07-10T11:39:53.832Z,57.40
2017-07-10T11:42:22.124Z,55.80
2017-07-10T11:44:50.418Z,56.40
2017-07-10T11:47:18.713Z,54.90
2017-07-10T11:49:47.781Z,53.80
2017-07-10T11:52:16.321Z,53.30
2017-07-10T11:54:45.380Z,53.60
2017-07-10T11:57:13.691Z,53.60
2017-07-10T11:59:41.978Z,52.50
2017-07-10T12:02:10.301Z,52.80
2017-07-10T12:04:38.578Z,51.40
2017-07-10T12:07:06.855Z,52.20
2017-07-10T12:09:35.155Z,52.00
2017-07-10T12:12:03.440Z,52.40
2017-07-10T12:14:32.503Z,52.60
2017-07-10T12:17:00.771Z,52.20
2017-07-10T12:19:29.075Z,52.00
2017-07-10T12:21:57.360Z,51.50
2017-07-10T12:24:25.668Z,53.00
2017-07-10T12:26:53.946Z,52.70
2017-07-10T12:29:23.184Z,51.70
2017-07-10T12:31:51.476Z,52.30
2017-07-10T12:34:19.796Z,51.40
2017-07-10T12:36:48.944Z,50.80
2017-07-10T12:39:17.228Z,50.70
2017-07-10T12:41:45.805Z,51.50
2017-07-10T12:44:14.083Z,51.30
2017-07-10T12:46:42.385Z,51.30
2017-07-10T12:49:10.680Z,50.40
2017-07-10T12:51:39.735Z,50.80
2017-07-10T12:54:08.013Z,50.40
2017-07-10T12:56:36.300Z,51.00
2017-07-10T12:59:04.579Z,49.80
2017-07-10T13:01:32.891Z,50.80
2017-07-10T13:04:01.195Z,51.00
2017-07-10T13:06:29.499Z,51.80
2017-07-10T13:08:57.780Z,51.20
2017-07-10T13:11:26.091Z,51.80
2017-07-10T13:13:55.128Z,51.40
2017-07-10T13:16:23.446Z,51.40
2017-07-10T13:18:51.725Z,51.20
2017-07-10T13:21:19.993Z,51.90
2017-07-10T13:23:48.299Z,51.60
2017-07-10T13:26:17.355Z,51.80
2017-07-10T13:28:45.669Z,51.70
2017-07-10T13:31:14.714Z,49.60
2017-07-10T13:33:42.999Z,49.60
2017-07-10T13:36:11.283Z,49.80
2017-07-10T13:38:39.592Z,49.40
2017-07-10T13:41:07.868Z,49.40
2017-07-10T13:43:36.188Z,49.20
2017-07-10T13:46:04.463Z,49.50
2017-07-10T13:48:32.738Z,49.50
2017-07-10T13:51:01.027Z,49.70
2017-07-10T13:53:29.315Z,49.20
2017-07-10T13:55:57.616Z,49.80
2017-07-10T13:58:25.955Z,49.60
2017-07-10T14:00:54.243Z,49.90
2017-07-10T14:03:22.520Z,49.80
2017-07-10T14:05:50.819Z,49.70
2017-07-10T14:08:19.131Z,49.30
2017-07-10T14:10:48.196Z,49.00
2017-07-10T14:13:16.460Z,49.00
2017-07-10T14:15:44.749Z,48.30
2017-07-10T14:18:13.040Z,48.10
2017-07-10T14:20:42.128Z,48.90
2017-07-10T14:23:10.413Z,48.90
2017-07-10T14:25:38.699Z,49.50
2017-07-10T14:28:06.991Z,50.10
2017-07-10T14:30:35.279Z,49.70
2017-07-10T14:33:03.589Z,49.80
2017-07-10T14:35:31.866Z,50.20
2017-07-10T14:38:00.172Z,50.50
2017-07-10T14:40:28.451Z,50.70
2017-07-10T14:42:56.755Z,51.00
2017-07-10T14:45:26.807Z,51.00
2017-07-10T14:47:55.112Z,51.00
2017-07-10T14:50:23.416Z,51.60
2017-07-10T14:52:52.472Z,53.40
2017-07-10T14:55:20.781Z,52.80
2017-07-10T14:57:49.095Z,54.60
2017-07-10T15:00:17.412Z,56.10
2017-07-10T15:02:45.696Z,59.20
2017-07-10T15:05:14.003Z,57.40
2017-07-10T15:07:42.299Z,56.30
2017-07-10T15:10:10.582Z,56.00
2017-07-10T15:12:38.867Z,55.90
2017-07-10T15:15:07.222Z,54.00
2017-07-10T15:17:35.512Z,53.80
2017-07-10T15:20:03.815Z,53.60
2017-07-10T15:22:32.109Z,53.40
2017-07-10T15:25:00.420Z,53.40
2017-07-10T15:27:29.473Z,55.40
2017-07-10T15:29:57.781Z,55.30
2017-07-10T15:32:26.055Z,57.20
2017-07-10T15:34:54.340Z,58.30
2017-07-10T15:37:22.645Z,58.90
2017-07-10T15:39:51.749Z,57.70
2017-07-10T15:42:20.056Z,58.00
2017-07-10T15:44:51.661Z,57.50
2017-07-10T15:47:20.708Z,57.80
2017-07-10T15:49:48.993Z,57.70
2017-07-10T15:52:17.276Z,58.20
2017-07-10T15:54:45.557Z,59.80
2017-07-10T15:57:13.847Z,62.00
2017-07-10T15:59:42.124Z,62.10
2017-07-10T16:02:10.442Z,61.70
2017-07-10T16:04:38.729Z,61.70
2017-07-10T16:07:07.072Z,62.80
2017-07-10T16:09:35.359Z,62.90
2017-07-10T16:12:04.432Z,61.70
2017-07-10T16:14:32.730Z,61.70
2017-07-10T16:17:01.767Z,61.10
2017-07-10T16:19:30.065Z,61.00
2017-07-10T16:21:58.341Z,61.30
2017-07-10T16:24:26.629Z,61.30
2017-07-10T16:26:54.900Z,61.40
2017-07-10T16:29:23.212Z,60.50
2017-07-10T16:31:52.263Z,60.20
2017-07-10T16:34:20.540Z,60.20
2017-07-10T16:36:49.833Z,59.90
2017-07-10T16:43:32.583Z,60.10
2017-07-10T16:46:01.920Z,57.80
2017-07-10T16:48:31.289Z,57.40
2017-07-10T16:51:02.360Z,57.90
2017-07-10T16:53:31.682Z,57.90
2017-07-10T16:56:01.018Z,57.90
2017-07-10T16:58:30.569Z,58.00
2017-07-10T17:00:59.922Z,58.10
2017-07-10T17:03:29.228Z,58.30
2017-07-10T17:05:58.532Z,58.50
2017-07-10T17:08:27.916Z,58.80
2017-07-10T17:10:57.229Z,58.80
2017-07-10T17:13:26.570Z,58.70
2017-07-10T17:15:55.897Z,58.30
2017-07-10T17:18:25.234Z,58.60
2017-07-10T17:20:54.552Z,58.10
2017-07-10T17:23:24.654Z,57.70
2017-07-10T17:25:53.977Z,57.70
2017-07-10T17:28:23.323Z,57.80
2017-07-10T17:30:52.686Z,57.90
2017-07-10T17:33:21.984Z,57.70
2017-07-10T17:35:51.326Z,57.70
2017-07-10T17:38:20.628Z,57.50
2017-07-10T17:40:49.993Z,57.30
2017-07-10T17:43:19.340Z,57.20
2017-07-10T17:45:48.666Z,54.90
2017-07-10T17:48:17.974Z,52.90
2017-07-10T17:50:47.298Z,53.10
2017-07-10T17:53:17.375Z,53.10
2017-07-10T17:55:46.753Z,53.10
2017-07-10T17:58:16.077Z,56.00
2017-07-10T18:00:45.408Z,57.40
2017-07-10T18:03:14.733Z,57.80
2017-07-10T18:05:44.055Z,57.70
2017-07-10T18:08:13.454Z,57.20
2017-07-10T18:10:42.776Z,55.50
2017-07-10T18:13:12.118Z,54.20
2017-07-10T18:15:42.431Z,53.90
2017-07-10T18:18:11.785Z,54.50
2017-07-10T18:20:41.128Z,53.80
2017-07-10T18:23:10.466Z,54.10
2017-07-10T18:25:39.768Z,54.20
2017-07-10T18:28:09.102Z,54.50
2017-07-10T18:30:38.410Z,54.70
2017-07-10T18:33:07.756Z,54.80
2017-07-10T18:35:37.061Z,54.80
2017-07-10T18:38:06.431Z,55.20
2017-07-10T18:40:35.733Z,55.30
2017-07-10T18:43:05.057Z,55.50
2017-07-10T18:45:34.409Z,55.50
2017-07-10T18:48:03.728Z,55.50
2017-07-10T18:50:33.090Z,55.40
2017-07-10T18:53:02.396Z,55.70
2017-07-10T18:55:31.733Z,55.70
2017-07-10T18:58:03.009Z,55.80
2017-07-10T19:00:32.355Z,55.80
2017-07-10T19:03:02.612Z,55.90
2017-07-10T19:05:31.958Z,55.80
2017-07-10T19:08:01.281Z,56.20
2017-07-10T19:10:31.410Z,56.40
2017-07-10T19:13:00.759Z,56.40
2017-07-10T19:15:30.084Z,56.50
2017-07-10T19:17:59.410Z,56.60
2017-07-10T19:20:28.714Z,56.50
2017-07-10T19:22:58.147Z,57.00
2017-07-10T19:25:28.066Z,56.90
2017-07-10T19:27:57.405Z,57.20
2017-07-10T19:30:26.713Z,57.10
2017-07-10T19:32:56.856Z,57.20
2017-07-10T19:35:26.175Z,57.70
2017-07-10T19:37:55.575Z,57.60
2017-07-10T19:40:24.882Z,58.00
2017-07-10T19:42:54.191Z,57.80
2017-07-10T19:45:23.545Z,57.90
2017-07-10T19:47:53.626Z,57.80
2017-07-10T19:50:23.098Z,57.80
2017-07-10T19:52:52.423Z,57.90
2017-07-10T19:55:21.751Z,58.30
2017-07-10T19:57:51.073Z,58.10
2017-07-10T20:00:20.426Z,58.00
2017-07-10T20:02:49.737Z,58.10
2017-07-10T20:05:19.100Z,58.00
2017-07-10T20:07:48.401Z,58.20
2017-07-10T20:10:17.713Z,58.30
2017-07-10T20:12:47.066Z,58.30
2017-07-10T20:15:16.388Z,58.40
2017-07-10T20:17:45.721Z,58.00
2017-07-10T20:20:15.041Z,58.20
2017-07-10T20:22:44.447Z,58.40
2017-07-10T20:25:14.484Z,58.40
2017-07-10T20:27:43.805Z,58.40
2017-07-10T20:30:13.110Z,58.70
2017-07-10T20:32:42.488Z,58.10
2017-07-10T20:35:11.802Z,58.10
2017-07-10T20:37:41.117Z,58.20
2017-07-10T20:40:10.458Z,59.10
2017-07-10T20:42:39.775Z,59.40
2017-07-10T20:45:09.119Z,59.70
2017-07-10T20:47:38.425Z,59.60
2017-07-10T20:50:07.745Z,59.60
2017-07-10T20:52:37.062Z,59.20
2017-07-10T20:55:06.389Z,59.90
2017-07-10T20:57:35.709Z,61.00
2017-07-10T21:00:05.055Z,61.80
2017-07-10T21:02:34.379Z,62.00
2017-07-10T21:05:03.709Z,62.80
2017-07-10T21:07:33.061Z,63.30
2017-07-10T21:10:02.389Z,63.80
2017-07-10T21:12:31.758Z,64.60
2017-07-10T21:15:01.849Z,66.40
2017-07-10T21:17:31.178Z,66.30
2017-07-10T21:20:00.493Z,68.90
2017-07-10T21:22:29.852Z,69.80
2017-07-10T21:24:59.165Z,71.40
2017-07-10T21:27:28.477Z,72.40
2017-07-10T21:29:57.829Z,73.50
2017-07-10T21:32:27.141Z,74.50
2017-07-10T21:34:56.471Z,74.60
2017-07-10T21:37:25.781Z,74.80
2017-07-10T21:39:55.877Z,75.30
2017-07-10T21:42:25.195Z,75.20
2017-07-10T21:44:54.517Z,75.00
2017-07-10T21:47:23.821Z,74.90
2017-07-10T21:49:53.150Z,74.30
2017-07-10T21:52:22.458Z,72.00
2017-07-10T21:54:51.789Z,72.50
2017-07-10T21:57:21.107Z,74.40
2017-07-10T21:59:50.444Z,71.80
2017-07-10T22:02:19.770Z,73.40
2017-07-10T22:04:49.105Z,71.20
2017-07-10T22:07:18.414Z,72.30
2017-07-10T22:09:48.549Z,73.80
2017-07-10T22:12:17.861Z,73.60
2017-07-10T22:14:47.182Z,73.30
2017-07-10T22:17:16.533Z,74.60
2017-07-10T22:19:45.846Z,74.20
2017-07-10T22:22:15.209Z,74.30
2017-07-10T22:24:44.510Z,75.10
2017-07-10T22:27:13.826Z,73.80
2017-07-10T22:29:43.168Z,74.70
2017-07-10T22:32:12.502Z,74.40
2017-07-10T22:34:41.826Z,74.60
2017-07-10T22:37:11.158Z,74.00
2017-07-10T22:39:41.230Z,75.90
2017-07-10T22:42:10.574Z,75.90
2017-07-10T22:44:39.885Z,76.10
2017-07-10T22:47:09.974Z,75.30
2017-07-10T22:49:39.299Z,75.30
2017-07-10T22:52:08.628Z,76.60
2017-07-10T22:54:37.974Z,76.80
2017-07-10T22:57:07.285Z,76.60
2017-07-10T22:59:36.625Z,77.30
2017-07-10T23:02:05.941Z,77.20
2017-07-10T23:04:35.270Z,76.30
2017-07-10T23:07:04.587Z,78.60
2017-07-10T23:09:34.425Z,76.20
2017-07-10T23:12:03.739Z,76.80
2017-07-10T23:14:33.065Z,77.60
2017-07-10T23:17:02.380Z,78.70
2017-07-10T23:19:31.692Z,77.60
2017-07-10T23:22:01.043Z,77.80
2017-07-10T23:24:30.350Z,78.70
2017-07-10T23:26:59.673Z,77.50
2017-07-10T23:29:28.991Z,78.90
2017-07-10T23:31:58.326Z,77.80
2017-07-10T23:34:27.650Z,78.30
2017-07-10T23:36:57.737Z,77.90
2017-07-10T23:39:27.045Z,77.80
2017-07-10T23:41:56.386Z,78.30
2017-07-10T23:44:25.705Z,77.00
2017-07-10T23:46:55.059Z,77.40
2017-07-10T23:49:24.366Z,77.80
2017-07-10T23:51:53.686Z,78.00
2017-07-10T23:54:23.781Z,75.70
2017-07-10T23:56:53.089Z,75.70
2017-07-10T23:59:23.191Z,75.90
